Time;durP1;ratioP1;P1;durP2;ratioP2;P2;SDS_P1;SDS_P2;PMS_P1;PMS_P2;Temp;Humidity;BMP_temperature;BMP_pressure;BME280_temperature;BME280_humidity;BME280_pressure;Samples;Min_cycle;Max_cycle;Signal;HPM_P1;HPM_P2
2021/07/04 00:02:20;;;;;;;12.25;7.30;;;15.90;99.90;;;;;;4901407;29;20293;-96
2021/07/04 00:04:46;;;;;;;8.88;5.80;;;15.80;99.90;;;;;;4901538;29;20270;-96
2021/07/04 00:07:12;;;;;;;8.95;6.68;;;15.70;99.90;;;;;;4902170;29;20619;-95
2021/07/04 00:09:39;;;;;;;9.80;6.32;;;15.70;99.90;;;;;;4901925;29;20186;-96
2021/07/04 00:12:06;;;;;;;9.38;6.50;;;15.60;99.90;;;;;;4901651;29;20222;-96
2021/07/04 00:14:32;;;;;;;8.23;5.40;;;15.60;99.90;;;;;;4900904;29;20191;-96
2021/07/04 00:16:57;;;;;;;7.38;6.65;;;15.60;99.90;;;;;;4900970;29;20176;-96
2021/07/04 00:19:23;;;;;;;8.50;7.18;;;15.60;99.90;;;;;;4900606;29;20258;-96
2021/07/04 00:21:50;;;;;;;7.15;6.07;;;15.60;99.90;;;;;;4900427;29;20199;-96
2021/07/04 00:24:15;;;;;;;8.70;6.32;;;15.60;99.90;;;;;;4900647;29;20625;-96
2021/07/04 00:26:41;;;;;;;8.70;6.22;;;15.60;99.90;;;;;;4900626;29;20183;-96
2021/07/04 00:29:07;;;;;;;7.65;5.78;;;15.60;99.90;;;;;;4902250;29;20187;-96
2021/07/04 00:31:33;;;;;;;10.07;6.63;;;15.60;99.90;;;;;;4901365;29;20175;-96
2021/07/04 00:34:00;;;;;;;10.35;6.35;;;15.50;99.90;;;;;;4901101;29;20175;-96
2021/07/04 00:36:26;;;;;;;12.65;6.65;;;15.50;99.90;;;;;;4902276;29;20179;-96
2021/07/04 00:38:52;;;;;;;12.75;5.93;;;15.50;99.90;;;;;;4901246;29;20175;-96
2021/07/04 00:41:18;;;;;;;9.32;6.28;;;15.40;99.90;;;;;;4901656;29;20175;-96
2021/07/04 00:43:47;;;;;;;7.75;5.65;;;15.40;99.90;;;;;;4901622;29;20239;-96
2021/07/04 00:46:16;;;;;;;7.90;5.60;;;15.40;99.90;;;;;;4900978;29;20210;-96
2021/07/04 00:48:42;;;;;;;7.63;5.68;;;15.40;99.90;;;;;;4900866;29;20604;-96
2021/07/04 00:51:09;;;;;;;6.18;5.20;;;15.30;99.90;;;;;;4900870;29;20187;-96
2021/07/04 00:53:36;;;;;;;6.63;5.93;;;15.30;99.90;;;;;;4903523;29;20222;-96
2021/07/04 00:56:02;;;;;;;14.48;6.10;;;15.30;99.90;;;;;;4908935;29;20172;-96
2021/07/04 00:58:28;;;;;;;6.88;4.57;;;15.30;99.90;;;;;;4904440;29;20219;-96
2021/07/04 01:00:55;;;;;;;5.15;4.70;;;15.20;99.90;;;;;;4902381;29;20191;-95
2021/07/04 01:03:21;;;;;;;10.07;5.97;;;15.10;99.90;;;;;;4904105;29;20199;-96
2021/07/04 01:05:49;;;;;;;7.88;6.00;;;15.10;99.90;;;;;;4902345;29;20544;-96
2021/07/04 01:08:15;;;;;;;7.80;6.22;;;15.10;99.90;;;;;;4901370;29;20189;-96
2021/07/04 01:10:46;;;;;;;9.45;6.55;;;15.10;99.90;;;;;;4902917;29;20707;-96
2021/07/04 01:13:13;;;;;;;8.98;6.32;;;15.00;99.90;;;;;;4906660;29;20218;-96
2021/07/04 01:15:40;;;;;;;10.02;6.82;;;15.00;99.90;;;;;;4907346;29;20172;-96
2021/07/04 01:18:08;;;;;;;7.53;6.55;;;15.00;99.90;;;;;;4904065;29;20175;-96
2021/07/04 01:20:35;;;;;;;10.77;6.82;;;14.90;99.90;;;;;;4903373;29;20631;-96
2021/07/04 01:23:10;;;;;;;9.75;7.00;;;14.90;99.90;;;;;;4905004;29;20218;-96
2021/07/04 01:25:40;;;;;;;10.90;6.70;;;14.90;99.90;;;;;;4907078;29;20209;-96
2021/07/04 01:28:07;;;;;;;8.65;6.72;;;14.90;99.90;;;;;;4911033;29;20195;-96
2021/07/04 01:30:34;;;;;;;7.68;6.45;;;15.00;99.90;;;;;;4906824;29;20239;-96
2021/07/04 01:33:01;;;;;;;12.20;6.85;;;15.00;99.90;;;;;;4902431;29;20215;-96
2021/07/04 01:35:27;;;;;;;10.07;6.90;;;15.00;99.90;;;;;;4903122;29;20242;-96
2021/07/04 01:37:54;;;;;;;11.80;6.72;;;14.90;99.90;;;;;;4905605;29;20206;-95
2021/07/04 01:40:20;;;;;;;8.43;7.13;;;14.90;99.90;;;;;;4901711;29;20175;-96
2021/07/04 01:42:49;;;;;;;9.70;7.05;;;14.90;99.90;;;;;;4900768;29;20213;-96
2021/07/04 01:45:17;;;;;;;14.75;7.53;;;14.90;99.90;;;;;;4904316;29;20215;-96
2021/07/04 01:47:45;;;;;;;12.65;7.78;;;14.90;99.90;;;;;;4904262;29;20214;-96
2021/07/04 01:50:19;;;;;;;10.13;6.95;;;14.80;99.90;;;;;;4903669;29;20184;-96
2021/07/04 01:52:47;;;;;;;12.50;7.40;;;14.80;99.90;;;;;;4904116;29;20250;-96
2021/07/04 01:55:14;;;;;;;10.38;7.50;;;14.80;99.90;;;;;;4910109;29;20179;-96
2021/07/04 01:57:40;;;;;;;11.82;7.10;;;14.80;99.90;;;;;;4911409;29;20194;-96
2021/07/04 02:00:13;;;;;;;9.30;7.30;;;14.80;99.90;;;;;;4912669;29;20242;-96
2021/07/04 02:02:42;;;;;;;10.98;6.88;;;14.70;99.90;;;;;;4909115;29;20225;-96
2021/07/04 02:05:08;;;;;;;8.65;6.97;;;14.70;99.90;;;;;;4904377;29;20182;-96
2021/07/04 02:07:34;;;;;;;18.17;7.47;;;14.70;99.90;;;;;;4906854;29;20200;-95
2021/07/04 02:10:01;;;;;;;13.75;6.97;;;14.70;99.90;;;;;;4907695;29;20199;-96
2021/07/04 02:12:29;;;;;;;11.52;6.40;;;14.70;99.90;;;;;;4909731;29;20211;-96
2021/07/04 02:14:55;;;;;;;8.55;6.72;;;14.60;99.90;;;;;;4912259;29;20174;-96
2021/07/04 02:17:21;;;;;;;10.23;7.22;;;14.60;99.90;;;;;;4911556;29;20179;-96
2021/07/04 02:19:47;;;;;;;8.13;7.32;;;14.40;99.90;;;;;;4909682;29;20186;-96
2021/07/04 02:22:14;;;;;;;11.52;7.05;;;14.50;99.90;;;;;;4910903;29;20687;-96
2021/07/04 02:24:40;;;;;;;12.55;7.50;;;14.50;99.90;;;;;;4910389;29;20183;-96
2021/07/04 02:27:07;;;;;;;13.63;7.70;;;14.40;99.90;;;;;;4909371;29;20186;-96
2021/07/04 02:29:33;;;;;;;9.50;7.22;;;14.40;99.90;;;;;;5261444;23;20722;-91
2021/07/04 02:31:59;;;;;;;10.93;7.82;;;14.50;99.90;;;;;;4913979;29;20218;-93
2021/07/04 02:34:28;;;;;;;13.13;7.38;;;14.50;99.90;;;;;;4898280;29;20705;-92
2021/07/04 02:36:54;;;;;;;14.52;7.53;;;14.40;99.90;;;;;;4897889;29;20282;-92
2021/07/04 02:39:20;;;;;;;12.55;7.22;;;14.50;99.90;;;;;;4914229;29;20225;-93
2021/07/04 02:41:45;;;;;;;10.77;7.38;;;14.40;99.90;;;;;;4898235;29;20168;-93
2021/07/04 02:44:11;;;;;;;7.68;6.90;;;14.40;99.90;;;;;;4898267;29;20175;-91
2021/07/04 02:46:37;;;;;;;7.88;5.63;;;14.30;99.90;;;;;;4898198;29;20176;-91
2021/07/04 02:49:04;;;;;;;10.48;5.65;;;14.30;99.90;;;;;;4898362;29;20247;-92
2021/07/04 02:51:30;;;;;;;9.68;6.63;;;14.20;99.90;;;;;;4898129;29;20262;-92
2021/07/04 02:53:55;;;;;;;7.40;6.10;;;14.10;99.90;;;;;;4898157;29;20290;-93
2021/07/04 02:56:21;;;;;;;7.88;6.20;;;14.10;99.90;;;;;;4898153;29;20262;-92
2021/07/04 02:58:47;;;;;;;6.68;5.65;;;14.10;99.90;;;;;;4897909;29;20323;-93
2021/07/04 03:01:12;;;;;;;6.20;5.00;;;14.10;99.90;;;;;;4898166;29;20174;-92
2021/07/04 03:03:39;;;;;;;6.25;5.50;;;13.90;99.90;;;;;;4897974;29;20210;-92
2021/07/04 03:06:05;;;;;;;10.45;6.20;;;14.00;99.90;;;;;;4898099;29;20266;-92
2021/07/04 03:08:31;;;;;;;7.88;6.00;;;14.00;99.90;;;;;;4898162;29;20272;-93
2021/07/04 03:10:56;;;;;;;6.78;5.97;;;14.00;99.90;;;;;;4897942;29;20211;-92
2021/07/04 03:13:22;;;;;;;13.43;6.55;;;14.00;99.90;;;;;;4897825;29;20211;-92
2021/07/04 03:15:48;;;;;;;8.75;6.05;;;14.00;99.90;;;;;;4898184;29;20175;-93
2021/07/04 03:18:14;;;;;;;6.70;5.88;;;14.10;99.90;;;;;;4897900;29;20178;-91
2021/07/04 03:20:40;;;;;;;8.27;5.97;;;14.10;99.90;;;;;;4897965;29;20538;-94
2021/07/04 03:23:06;;;;;;;8.05;5.75;;;14.10;99.90;;;;;;4897984;29;20203;-92
2021/07/04 03:25:32;;;;;;;6.30;5.68;;;14.10;99.90;;;;;;4897848;29;20219;-93
2021/07/04 03:27:58;;;;;;;6.65;5.70;;;14.00;99.90;;;;;;4898067;29;20184;-94
2021/07/04 03:30:24;;;;;;;11.30;5.43;;;14.10;99.90;;;;;;4898180;29;20281;-93
2021/07/04 03:32:51;;;;;;;8.63;6.00;;;14.00;99.90;;;;;;4897798;29;20211;-91
2021/07/04 03:35:17;;;;;;;6.95;6.25;;;14.00;99.90;;;;;;4898224;29;20235;-92
2021/07/04 03:37:44;;;;;;;7.85;6.00;;;13.90;99.90;;;;;;4897897;29;20196;-94
2021/07/04 03:40:13;;;;;;;7.53;6.10;;;13.90;99.90;;;;;;4897899;29;20172;-91
2021/07/04 03:42:39;;;;;;;8.23;6.57;;;14.00;99.90;;;;;;4897659;29;20199;-92
2021/07/04 03:45:06;;;;;;;7.25;6.00;;;13.90;99.90;;;;;;4897888;29;20607;-93
2021/07/04 03:47:32;;;;;;;8.75;6.70;;;13.90;99.90;;;;;;4897671;29;20176;-93
2021/07/04 03:49:58;;;;;;;7.32;6.10;;;13.90;99.90;;;;;;4897911;29;20653;-93
2021/07/04 03:52:24;;;;;;;6.97;5.85;;;13.90;99.90;;;;;;4897544;29;20210;-93
2021/07/04 03:54:49;;;;;;;10.90;5.95;;;13.90;99.90;;;;;;4897627;29;20175;-93
2021/07/04 03:57:21;;;;;;;6.78;5.35;;;13.90;99.90;;;;;;4900454;29;20172;-94
2021/07/04 03:59:59;;;;;;;6.95;5.65;;;14.00;99.90;;;;;;4901136;29;20228;-93
2021/07/04 04:02:26;;;;;;;9.30;5.93;;;14.10;99.90;;;;;;4901243;29;20207;-92
2021/07/04 04:04:56;;;;;;;6.70;5.68;;;14.10;99.90;;;;;;4900957;29;20183;-91
2021/07/04 04:07:23;;;;;;;10.82;5.38;;;14.20;99.90;;;;;;4901188;29;20561;-93
2021/07/04 04:09:51;;;;;;;11.18;6.00;;;14.30;99.90;;;;;;4900873;29;20183;-93
2021/07/04 04:12:17;;;;;;;8.05;6.10;;;14.20;99.90;;;;;;4900760;29;20569;-94
2021/07/04 04:14:43;;;;;;;15.55;6.82;;;14.30;99.90;;;;;;4900893;29;20182;-91
2021/07/04 04:17:09;;;;;;;13.68;6.57;;;14.30;99.90;;;;;;4900896;29;20179;-93
2021/07/04 04:19:35;;;;;;;7.72;5.95;;;14.40;99.90;;;;;;4900922;29;20655;-92
2021/07/04 04:22:01;;;;;;;8.13;6.60;;;14.40;99.90;;;;;;4900768;29;20271;-92
2021/07/04 04:24:27;;;;;;;8.07;7.20;;;14.40;99.90;;;;;;4900829;29;20243;-92
2021/07/04 04:26:53;;;;;;;10.90;7.68;;;14.50;99.90;;;;;;4900678;29;20270;-94
2021/07/04 04:29:18;;;;;;;11.88;7.53;;;14.50;99.90;;;;;;4900438;29;20235;-94
2021/07/04 04:31:47;;;;;;;13.20;8.65;;;14.60;99.90;;;;;;4900330;29;20175;-93
2021/07/04 04:34:13;;;;;;;10.07;7.35;;;14.70;99.90;;;;;;4900476;29;20175;-93
2021/07/04 04:36:39;;;;;;;12.32;8.10;;;14.70;99.90;;;;;;4900317;29;20236;-93
2021/07/04 04:39:06;;;;;;;14.13;8.05;;;14.80;99.90;;;;;;4900394;29;20176;-93
2021/07/04 04:41:34;;;;;;;11.63;8.10;;;14.90;99.90;;;;;;4900280;29;20167;-93
2021/07/04 04:44:00;;;;;;;13.07;8.70;;;15.00;99.90;;;;;;4900251;29;20183;-93
2021/07/04 04:46:26;;;;;;;14.35;8.65;;;15.20;99.90;;;;;;4900294;29;20251;-93
2021/07/04 04:48:52;;;;;;;12.98;9.00;;;15.40;99.90;;;;;;4900256;29;20635;-92
2021/07/04 04:51:18;;;;;;;14.18;8.10;;;15.60;99.90;;;;;;4900255;29;20549;-92
2021/07/04 04:53:44;;;;;;;11.75;8.02;;;15.70;99.90;;;;;;4899827;29;20211;-93
2021/07/04 04:56:10;;;;;;;11.73;9.00;;;15.90;99.90;;;;;;4900132;29;20262;-92
2021/07/04 04:58:36;;;;;;;12.57;8.70;;;16.00;99.90;;;;;;4899979;29;20177;-93
2021/07/04 05:01:02;;;;;;;10.85;8.70;;;16.10;99.90;;;;;;4899984;29;20183;-92
2021/07/04 05:03:27;;;;;;;10.43;8.82;;;16.10;99.90;;;;;;4899920;29;20702;-92
2021/07/04 05:05:53;;;;;;;12.13;9.15;;;16.20;99.90;;;;;;4899829;29;20566;-92
2021/07/04 05:08:19;;;;;;;12.23;8.68;;;16.30;99.90;;;;;;4898599;29;20187;-92
2021/07/04 05:10:45;;;;;;;10.25;8.05;;;16.40;99.90;;;;;;4899608;29;20271;-92
2021/07/04 05:13:11;;;;;;;8.63;7.60;;;16.40;99.90;;;;;;4899597;29;20218;-93
2021/07/04 05:15:36;;;;;;;9.32;7.95;;;16.40;99.90;;;;;;4899656;29;20175;-92
2021/07/04 05:18:06;;;;;;;12.27;8.52;;;16.40;99.90;;;;;;4899794;29;20199;-93
2021/07/04 05:20:32;;;;;;;10.02;8.02;;;16.40;99.90;;;;;;4899541;29;20201;-92
2021/07/04 05:22:58;;;;;;;9.90;8.40;;;16.50;99.90;;;;;;4899513;29;20231;-92
2021/07/04 05:25:24;;;;;;;14.63;8.77;;;16.60;99.90;;;;;;4899542;29;20175;-93
2021/07/04 05:27:50;;;;;;;11.13;8.13;;;16.60;99.90;;;;;;4899460;29;20183;-92
2021/07/04 05:30:16;;;;;;;11.18;7.47;;;16.70;99.90;;;;;;4899113;29;20250;-96
2021/07/04 05:32:42;;;;;;;8.95;7.63;;;16.80;99.90;;;;;;4899288;29;20290;-96
2021/07/04 05:35:08;;;;;;;9.50;8.00;;;17.00;99.90;;;;;;4899426;29;20275;-96
2021/07/04 05:37:35;;;;;;;12.27;7.35;;;17.10;99.90;;;;;;4899399;29;20638;-95
2021/07/04 05:40:03;;;;;;;14.25;8.27;;;17.10;99.90;;;;;;4899262;29;20658;-96
2021/07/04 05:42:30;;;;;;;10.27;7.03;;;17.20;99.90;;;;;;4899226;29;20210;-96
2021/07/04 05:44:57;;;;;;;7.22;6.50;;;17.20;99.90;;;;;;4899190;29;20186;-96
2021/07/04 05:47:23;;;;;;;8.57;5.90;;;17.30;99.90;;;;;;4899050;29;20180;-95
2021/07/04 05:49:49;;;;;;;8.25;6.50;;;17.40;99.90;;;;;;4899130;29;20639;-96
2021/07/04 05:52:16;;;;;;;10.05;6.43;;;17.40;99.90;;;;;;4898897;29;20211;-96
2021/07/04 05:54:41;;;;;;;10.82;7.50;;;17.50;99.90;;;;;;4899330;29;20186;-96
2021/07/04 05:57:07;;;;;;;9.18;6.10;;;17.50;99.90;;;;;;4898478;29;20191;-95
2021/07/04 05:59:34;;;;;;;6.88;6.07;;;17.60;99.90;;;;;;4899016;29;20547;-96
2021/07/04 06:01:59;;;;;;;7.68;6.88;;;17.70;99.90;;;;;;4898785;29;20207;-96
2021/07/04 06:04:27;;;;;;;10.77;7.65;;;17.80;99.90;;;;;;4898860;29;20175;-96
2021/07/04 06:06:52;;;;;;;10.45;6.30;;;17.80;99.90;;;;;;4898830;29;20187;-96
2021/07/04 06:09:19;;;;;;;7.72;5.90;;;17.90;99.90;;;;;;4898685;29;20183;-96
2021/07/04 06:11:48;;;;;;;8.23;6.65;;;18.00;99.90;;;;;;4898570;29;20222;-95
2021/07/04 06:14:13;;;;;;;8.23;6.82;;;18.00;99.90;;;;;;4898837;29;20176;-96
2021/07/04 06:16:40;;;;;;;8.48;6.30;;;18.10;99.90;;;;;;4898662;29;20650;-96
2021/07/04 06:19:08;;;;;;;7.82;6.13;;;18.20;99.90;;;;;;4898408;29;20262;-96
2021/07/04 06:21:34;;;;;;;10.32;7.38;;;18.20;99.90;;;;;;4898552;29;20183;-95
2021/07/04 06:23:59;;;;;;;7.72;6.93;;;18.30;99.90;;;;;;4899017;29;20176;-96
2021/07/04 06:26:25;;;;;;;6.40;5.75;;;18.40;99.90;;;;;;4899133;29;20175;-96
2021/07/04 06:28:53;;;;;;;7.43;6.47;;;18.40;99.90;;;;;;4897841;29;20214;-95
2021/07/04 06:31:19;;;;;;;8.90;7.40;;;18.50;99.90;;;;;;4879709;29;20290;-96
2021/07/04 06:33:53;;;;;;;10.38;7.38;;;18.50;99.90;;;;;;4879607;29;20290;-96
2021/07/04 06:36:19;;;;;;;15.02;7.13;;;18.60;99.90;;;;;;4879729;29;20184;-95
2021/07/04 06:38:45;;;;;;;8.13;6.68;;;18.60;99.90;;;;;;4879850;29;20244;-96
2021/07/04 06:41:11;;;;;;;10.32;6.20;;;18.60;99.90;;;;;;4879703;29;20175;-96
2021/07/04 06:43:38;;;;;;;11.02;7.50;;;18.70;99.90;;;;;;4879653;29;20214;-96
2021/07/04 06:46:03;;;;;;;9.45;6.82;;;18.80;99.90;;;;;;4879678;29;20244;-95
2021/07/04 06:48:31;;;;;;;9.93;6.07;;;18.90;99.90;;;;;;4879632;29;20180;-96
2021/07/04 06:50:56;;;;;;;9.57;5.97;;;19.00;99.90;;;;;;4879450;29;20191;-95
2021/07/04 06:53:22;;;;;;;10.95;7.20;;;19.10;99.90;;;;;;4879360;29;20208;-96
2021/07/04 06:55:48;;;;;;;7.50;6.35;;;19.30;99.90;;;;;;4879488;29;20240;-95
2021/07/04 06:58:14;;;;;;;10.20;6.32;;;19.60;99.90;;;;;;4879524;29;20259;-95
2021/07/04 07:01:07;;;;;;;8.05;5.85;;;19.80;99.90;;;;;;4879614;29;20191;-96
2021/07/04 07:03:33;;;;;;;6.95;5.63;;;20.00;99.90;;;;;;4879622;29;20346;-96
2021/07/04 07:06:02;;;;;;;7.68;6.00;;;20.20;99.90;;;;;;4879574;29;20212;-95
2021/07/04 07:08:27;;;;;;;5.50;5.00;;;20.40;99.90;;;;;;4879417;29;20211;-96
2021/07/04 07:10:53;;;;;;;6.38;5.50;;;20.60;99.90;;;;;;4879618;29;20184;-96
2021/07/04 07:13:19;;;;;;;6.07;5.47;;;20.80;99.90;;;;;;4879387;29;20212;-96
2021/07/04 07:15:46;;;;;;;6.38;5.28;;;20.90;99.90;;;;;;4879533;29;20182;-96
2021/07/04 07:18:12;;;;;;;10.02;5.32;;;21.00;99.90;;;;;;4879477;29;20263;-95
2021/07/04 07:20:39;;;;;;;9.75;5.65;;;21.10;99.90;;;;;;4878354;29;20184;-95
2021/07/04 07:23:05;;;;;;;6.50;5.90;;;21.30;99.90;;;;;;4878283;29;20203;-96
2021/07/04 07:25:31;;;;;;;7.13;5.80;;;21.40;99.90;;;;;;4878914;29;20209;-92
2021/07/04 07:28:00;;;;;;;5.88;5.28;;;21.40;99.90;;;;;;4879277;29;20191;-92
2021/07/04 07:30:26;;;;;;;8.02;5.32;;;21.50;99.90;;;;;;4891127;29;20258;-92
2021/07/04 07:32:53;;;;;;;7.75;5.20;;;21.60;99.90;;;;;;4901440;29;20222;-92
2021/07/04 07:35:19;;;;;;;10.05;5.47;;;21.60;99.90;;;;;;4901646;29;20206;-93
2021/07/04 07:37:45;;;;;;;7.57;5.70;;;21.70;99.90;;;;;;4901395;29;20718;-93
2021/07/04 07:40:12;;;;;;;8.13;5.93;;;21.70;99.90;;;;;;4901593;29;20182;-92
2021/07/04 07:42:38;;;;;;;6.65;5.55;;;21.80;99.90;;;;;;4901529;29;20747;-93
2021/07/04 07:45:05;;;;;;;6.97;5.00;;;22.00;99.90;;;;;;4901408;29;20179;-92
2021/07/04 07:47:31;;;;;;;8.65;5.20;;;22.10;99.90;;;;;;4901278;29;20266;-92
2021/07/04 07:50:01;;;;;;;5.35;4.32;;;22.30;99.90;;;;;;4901196;29;20199;-92
2021/07/04 07:52:28;;;;;;;7.25;5.20;;;22.30;99.90;;;;;;4901433;29;20219;-92
2021/07/04 07:54:54;;;;;;;5.80;5.20;;;22.40;99.90;;;;;;4901503;29;20340;-93
2021/07/04 07:57:20;;;;;;;6.10;5.25;;;22.40;99.90;;;;;;4901136;29;20666;-93
2021/07/04 07:59:46;;;;;;;7.03;5.13;;;22.50;99.90;;;;;;4901113;29;20175;-93
2021/07/04 08:02:11;;;;;;;7.75;5.13;;;22.50;99.90;;;;;;4901066;29;20209;-92
2021/07/04 08:04:38;;;;;;;7.70;4.85;;;22.70;99.90;;;;;;4901101;29;20187;-93
2021/07/04 08:07:04;;;;;;;5.43;4.57;;;22.90;99.90;;;;;;4900922;29;20180;-92
2021/07/04 08:09:30;;;;;;;6.20;5.25;;;23.10;99.90;;;;;;4900991;29;20179;-92
2021/07/04 08:11:59;;;;;;;5.47;4.53;;;23.30;99.90;;;;;;4900756;29;20631;-92
2021/07/04 08:14:25;;;;;;;5.25;4.50;;;23.40;99.90;;;;;;4900989;29;20179;-92
2021/07/04 08:16:53;;;;;;;5.00;4.45;;;23.50;99.90;;;;;;4900744;29;20226;-92
2021/07/04 08:19:19;;;;;;;4.20;3.80;;;23.50;99.90;;;;;;4900576;29;20624;-91
2021/07/04 08:21:45;;;;;;;6.70;4.20;;;23.60;99.90;;;;;;4900621;29;20187;-92
2021/07/04 08:24:11;;;;;;;4.70;4.20;;;23.60;99.90;;;;;;4900702;29;20266;-92
2021/07/04 08:26:36;;;;;;;4.43;4.03;;;23.70;99.90;;;;;;4900658;29;20632;-95
2021/07/04 08:29:03;;;;;;;6.50;3.95;;;23.70;99.90;;;;;;4900483;29;20184;-95
2021/07/04 08:31:30;;;;;;;4.10;3.72;;;23.70;99.90;;;;;;4900614;29;20250;-95
2021/07/04 08:33:56;;;;;;;4.63;3.60;;;23.90;99.90;;;;;;4900475;29;20217;-96
2021/07/04 08:36:25;;;;;;;4.32;3.70;;;24.00;99.90;;;;;;4900493;29;20262;-95
2021/07/04 08:38:51;;;;;;;14.18;6.43;;;24.00;99.20;;;;;;4900391;29;20172;-95
2021/07/04 08:41:17;;;;;;;6.63;4.30;;;24.10;99.10;;;;;;4900342;29;20177;-96
2021/07/04 08:43:43;;;;;;;4.55;3.78;;;24.00;98.80;;;;;;4900201;29;20199;-95
2021/07/04 08:46:09;;;;;;;5.05;4.05;;;24.00;97.90;;;;;;4900524;29;20183;-95
2021/07/04 08:48:37;;;;;;;4.45;3.53;;;24.10;98.00;;;;;;4900679;29;20175;-95
2021/07/04 08:51:05;;;;;;;6.43;4.53;;;24.20;98.50;;;;;;4900416;29;20722;-95
2021/07/04 08:53:32;;;;;;;5.22;4.30;;;24.20;99.60;;;;;;4899830;29;20286;-96
2021/07/04 08:55:58;;;;;;;6.97;4.10;;;24.30;97.80;;;;;;4900446;29;20179;-95
2021/07/04 08:58:25;;;;;;;6.05;4.35;;;24.30;97.70;;;;;;4900152;29;20202;-96
2021/07/04 09:01:12;;;;;;;5.07;4.30;;;24.10;95.10;;;;;;4900252;29;20176;-96
2021/07/04 09:03:40;;;;;;;5.82;4.68;;;24.30;96.90;;;;;;4900181;29;20215;-96
2021/07/04 09:06:06;;;;;;;6.40;4.30;;;24.30;98.70;;;;;;4900173;29;20179;-95
2021/07/04 09:08:32;;;;;;;6.60;4.43;;;24.50;97.80;;;;;;4900157;29;20191;-95
2021/07/04 09:11:21;;;;;;;4.55;3.70;;;24.50;94.70;;;;;;4900130;29;20195;-95
2021/07/04 09:13:48;;;;;;;4.90;4.00;;;24.60;98.10;;;;;;4899806;29;20215;-96
2021/07/04 09:16:16;;;;;;;4.72;3.97;;;24.70;96.40;;;;;;4899853;29;20171;-95
2021/07/04 09:18:42;;;;;;;6.47;3.85;;;24.80;97.10;;;;;;4899778;29;20175;-95
2021/07/04 09:21:20;;;;;;;6.72;4.22;;;24.80;97.50;;;;;;4899798;29;20185;-95
2021/07/04 09:23:46;;;;;;;6.40;4.10;;;24.90;96.40;;;;;;4899500;29;20210;-95
2021/07/04 09:26:40;;;;;;;6.18;3.97;;;25.00;96.50;;;;;;4899707;29;20180;-96
2021/07/04 09:29:08;;;;;;;8.75;3.95;;;25.00;97.00;;;;;;4897487;29;20195;-96
2021/07/04 09:31:34;;;;;;;7.15;4.13;;;25.00;97.10;;;;;;4899457;29;20637;-96
2021/07/04 09:34:04;;;;;;;4.57;3.40;;;24.90;95.90;;;;;;4899193;29;20227;-96
2021/07/04 09:36:30;;;;;;;6.00;3.65;;;24.90;96.80;;;;;;4899529;29;20210;-95
2021/07/04 09:38:56;;;;;;;4.47;3.85;;;24.90;94.70;;;;;;4899427;29;20179;-96
2021/07/04 09:41:22;;;;;;;6.30;3.95;;;24.90;96.60;;;;;;4899320;29;20174;-95
2021/07/04 09:43:48;;;;;;;4.45;4.05;;;24.90;97.20;;;;;;4899118;29;20207;-95
2021/07/04 09:46:16;;;;;;;5.47;4.07;;;25.00;97.80;;;;;;4899276;29;20187;-96
2021/07/04 09:48:46;;;;;;;4.50;3.78;;;25.10;95.90;;;;;;4899283;29;20275;-95
2021/07/04 09:51:24;;;;;;;4.45;3.88;;;25.10;96.20;;;;;;4899133;29;20692;-96
2021/07/04 09:53:57;;;;;;;4.80;3.88;;;25.10;97.50;;;;;;4898290;29;20214;-95
2021/07/04 09:56:24;;;;;;;5.15;3.97;;;25.10;96.80;;;;;;4899364;29;20657;-95
2021/07/04 09:58:51;;;;;;;4.38;3.80;;;25.00;96.20;;;;;;4899001;29;20179;-95
2021/07/04 10:01:50;;;;;;;5.38;3.92;;;25.00;95.90;;;;;;4899090;29;20266;-96
2021/07/04 10:04:30;;;;;;;4.45;3.90;;;24.90;95.40;;;;;;4888250;29;20198;-96
2021/07/04 10:06:58;;;;;;;5.30;3.50;;;25.00;96.60;;;;;;4898918;29;20270;-95
2021/07/04 10:09:26;;;;;;;4.88;3.70;;;25.10;94.60;;;;;;4898866;29;20180;-95
2021/07/04 10:11:53;;;;;;;7.32;3.30;;;25.30;97.50;;;;;;4898639;29;20207;-96
2021/07/04 10:14:19;;;;;;;6.18;4.13;;;25.60;96.60;;;;;;4898804;29;20548;-96
2021/07/04 10:16:46;;;;;;;4.43;3.90;;;25.70;94.80;;;;;;4898508;29;20187;-96
2021/07/04 10:19:17;;;;;;;7.00;3.65;;;25.80;93.80;;;;;;4898594;29;20181;-95
2021/07/04 10:21:43;;;;;;;5.85;4.25;;;25.70;94.20;;;;;;4898529;29;20228;-95
2021/07/04 10:24:11;;;;;;;4.60;3.88;;;25.60;95.30;;;;;;4898601;29;20184;-95
2021/07/04 10:26:39;;;;;;;6.68;4.00;;;25.50;95.30;;;;;;4898448;29;20186;-96
2021/07/04 10:29:07;;;;;;;7.50;3.95;;;25.40;95.30;;;;;;4898198;29;20175;-95
2021/07/04 10:31:35;;;;;;;4.22;3.83;;;25.30;96.30;;;;;;4898547;29;20171;-96
2021/07/04 10:34:15;;;;;;;4.63;3.65;;;25.20;95.90;;;;;;4898330;29;20196;-96
2021/07/04 10:37:02;;;;;;;4.05;3.65;;;25.20;95.60;;;;;;4898414;29;20179;-95
2021/07/04 10:39:30;;;;;;;5.97;3.92;;;25.20;95.10;;;;;;4898322;29;20239;-96
2021/07/04 10:41:57;;;;;;;4.43;3.85;;;25.10;94.60;;;;;;4898238;29;20209;-95
2021/07/04 10:44:49;;;;;;;7.05;3.83;;;25.00;95.40;;;;;;4898268;29;20172;-95
2021/07/04 10:47:35;;;;;;;5.13;3.63;;;24.90;95.70;;;;;;4898360;29;20163;-96
2021/07/04 10:50:10;;;;;;;4.80;3.67;;;24.80;95.30;;;;;;4898292;29;20263;-96
2021/07/04 10:52:42;;;;;;;4.10;3.70;;;24.80;93.90;;;;;;4897989;29;20246;-95
2021/07/04 10:55:11;;;;;;;5.65;3.72;;;24.80;94.10;;;;;;4898211;29;20176;-95
2021/07/04 10:57:53;;;;;;;4.65;3.72;;;24.70;94.90;;;;;;4898093;29;20207;-95
2021/07/04 11:00:32;;;;;;;4.32;3.75;;;24.60;95.10;;;;;;4898110;29;20238;-95
2021/07/04 11:03:03;;;;;;;4.35;3.92;;;24.90;94.30;;;;;;4898085;29;20203;-96
2021/07/04 11:05:39;;;;;;;4.80;3.65;;;25.30;93.70;;;;;;4899800;29;20262;-96
2021/07/04 11:08:10;;;;;;;4.50;3.58;;;25.40;91.30;;;;;;4902174;29;20271;-96
2021/07/04 11:10:50;;;;;;;15.35;4.10;;;25.70;93.90;;;;;;4901895;29;20189;-95
2021/07/04 11:13:15;;;;;;;4.10;3.78;;;25.50;92.50;;;;;;4901707;29;20319;-96
2021/07/04 11:15:50;;;;;;;4.18;3.78;;;25.30;94.40;;;;;;4901989;29;20179;-95
2021/07/04 11:18:17;;;;;;;5.28;3.30;;;25.30;95.30;;;;;;4901940;29;20660;-95
2021/07/04 11:20:43;;;;;;;6.05;3.90;;;25.20;93.00;;;;;;4901746;29;20180;-96
2021/07/04 11:23:12;;;;;;;4.38;3.85;;;25.20;95.50;;;;;;4901629;29;20730;-96
2021/07/04 11:25:48;;;;;;;5.53;3.67;;;25.20;96.00;;;;;;4901708;29;20727;-96
2021/07/04 11:28:21;;;;;;;4.32;3.92;;;25.30;95.00;;;;;;4901686;29;20176;-95
2021/07/04 11:30:59;;;;;;;4.82;3.65;;;25.50;94.30;;;;;;4901362;29;20234;-95
2021/07/04 11:33:37;;;;;;;3.45;3.15;;;25.60;93.10;;;;;;4901991;29;20671;-96
2021/07/04 11:36:08;;;;;;;6.63;3.85;;;25.70;92.90;;;;;;4901725;29;20217;-95
2021/07/04 11:38:47;;;;;;;6.00;3.88;;;25.80;93.50;;;;;;4901905;29;20172;-96
2021/07/04 11:41:25;;;;;;;4.40;3.90;;;25.80;93.20;;;;;;4901668;29;20259;-96
2021/07/04 11:43:55;;;;;;;4.10;3.42;;;25.90;94.80;;;;;;4901718;29;20298;-95
2021/07/04 11:46:24;;;;;;;6.72;3.97;;;26.00;93.30;;;;;;4901443;29;20171;-96
2021/07/04 11:49:07;;;;;;;6.03;3.65;;;26.00;93.50;;;;;;4901624;29;20175;-95
2021/07/04 11:51:53;;;;;;;4.00;3.60;;;26.10;94.90;;;;;;4901535;29;20179;-95
2021/07/04 11:54:32;;;;;;;3.97;3.38;;;26.30;92.70;;;;;;4901523;29;20175;-95
2021/07/04 11:59:52;;;;;;;4.15;3.50;;;26.60;92.20;;;;;;4902488;29;20166;-95
2021/07/04 12:02:18;;;;;;;4.30;3.90;;;26.60;90.60;;;;;;4901165;29;20346;-95
2021/07/04 12:04:46;;;;;;;4.38;3.50;;;26.70;92.30;;;;;;4901148;29;20600;-96
2021/07/04 12:07:15;;;;;;;5.32;3.40;;;26.80;92.00;;;;;;4901019;29;20183;-95
2021/07/04 12:09:46;;;;;;;6.53;3.65;;;26.80;91.00;;;;;;4900916;29;20175;-96
2021/07/04 12:12:24;;;;;;;4.55;3.40;;;26.80;91.70;;;;;;4900817;29;20251;-95
2021/07/04 12:14:53;;;;;;;6.18;3.90;;;26.90;90.70;;;;;;4900952;29;20174;-96
2021/07/04 12:17:31;;;;;;;4.13;3.70;;;26.90;91.10;;;;;;4900452;29;20179;-96
2021/07/04 12:19:59;;;;;;;4.80;3.70;;;26.90;90.10;;;;;;4900687;29;20175;-96
2021/07/04 12:22:33;;;;;;;4.15;3.70;;;26.80;88.40;;;;;;4900635;29;20676;-96
2021/07/04 12:25:01;;;;;;;5.43;3.53;;;26.70;90.20;;;;;;4900692;29;20193;-96
2021/07/04 12:27:34;;;;;;;4.82;3.72;;;26.60;89.50;;;;;;4900682;29;20181;-96
2021/07/04 12:30:04;;;;;;;7.22;4.15;;;26.60;89.50;;;;;;4900599;29;20772;-96
2021/07/04 12:33:11;;;;;;;5.00;3.60;;;26.80;91.70;;;;;;4900462;29;20238;-96
2021/07/04 12:35:39;;;;;;;3.67;3.38;;;26.80;90.70;;;;;;4889701;29;20187;-96
2021/07/04 12:38:11;;;;;;;12.93;3.70;;;26.90;87.50;;;;;;4900476;29;20506;-95
2021/07/04 12:40:48;;;;;;;4.60;3.83;;;26.90;88.20;;;;;;4900465;29;20171;-95
2021/07/04 12:43:16;;;;;;;4.15;3.70;;;26.90;88.80;;;;;;4900330;29;20210;-96
2021/07/04 12:45:51;;;;;;;3.65;3.33;;;26.90;88.70;;;;;;4900407;29;20172;-96
2021/07/04 12:48:18;;;;;;;8.38;3.40;;;26.90;85.10;;;;;;4900225;29;20252;-96
2021/07/04 12:50:45;;;;;;;7.68;3.88;;;26.80;84.20;;;;;;4900232;29;20628;-95
2021/07/04 12:53:12;;;;;;;6.22;3.60;;;26.80;84.10;;;;;;4899974;29;20215;-96